createdAt,value
2022-09-09T00:02:25.584Z,99742.63
2022-09-09T00:05:39.747Z,99746.47
2022-09-09T00:09:07.394Z,99752.44
2022-09-09T00:12:17.910Z,99752.72
2022-09-09T00:15:39.190Z,99757.00
2022-09-09T00:18:51.525Z,99762.13
2022-09-09T00:22:09.950Z,99762.91
2022-09-09T00:25:17.990Z,99766.88
2022-09-09T00:28:23.834Z,99762.13
2022-09-09T00:31:30.816Z,99761.75
2022-09-09T00:34:34.157Z,99759.53
2022-09-09T00:37:36.513Z,99764.34
2022-09-09T00:40:48.183Z,99763.97
2022-09-09T00:44:04.490Z,99774.28
2022-09-09T00:47:21.643Z,99770.06
2022-09-09T00:50:45.475Z,99770.22
2022-09-09T00:54:11.914Z,99766.84
2022-09-09T00:57:30.638Z,99778.00
2022-09-09T01:00:41.108Z,99769.28
2022-09-09T01:03:46.647Z,99769.56
2022-09-09T01:06:55.979Z,99770.88
2022-09-09T01:10:04.858Z,99776.38
2022-09-09T01:13:16.444Z,99774.69
2022-09-09T01:16:18.851Z,99771.31
2022-09-09T01:19:44.247Z,99778.09
2022-09-09T01:23:41.967Z,99785.28
2022-09-09T01:26:56.786Z,99786.56
2022-09-09T01:30:01.449Z,99782.06
2022-09-09T01:33:05.511Z,99789.25
2022-09-09T01:36:13.420Z,99790.69
2022-09-09T01:39:22.562Z,99786.31
2022-09-09T01:42:32.817Z,99786.63
2022-09-09T01:45:35.729Z,99788.59
2022-09-09T01:48:37.900Z,99786.91
2022-09-09T01:51:44.850Z,99792.56
2022-09-09T01:54:49.677Z,99788.50
2022-09-09T01:58:13.122Z,99788.94
2022-09-09T02:01:23.740Z,99790.75
2022-09-09T02:04:26.191Z,99796.25
2022-09-09T02:07:41.342Z,99803.72
2022-09-09T02:11:14.546Z,99805.16
2022-09-09T02:14:43.025Z,99812.34
2022-09-09T02:17:48.030Z,99818.81
2022-09-09T02:20:54.558Z,99816.28
2022-09-09T02:24:00.101Z,99814.63
2022-09-09T02:27:09.927Z,99811.53
2022-09-09T02:30:13.596Z,99820.69
2022-09-09T02:33:30.227Z,99816.88
2022-09-09T02:36:36.204Z,99825.06
2022-09-09T02:39:38.418Z,99822.94
2022-09-09T02:42:48.324Z,99822.69
2022-09-09T02:46:09.355Z,99826.63
2022-09-09T02:49:28.433Z,99826.47
2022-09-09T02:53:11.791Z,99827.16
2022-09-09T02:56:21.563Z,99825.75
2022-09-09T02:59:26.355Z,99834.88
2022-09-09T03:02:29.102Z,99825.75
2022-09-09T03:05:37.413Z,99833.19
2022-09-09T03:08:41.656Z,99836.84
2022-09-09T03:11:44.072Z,99845.84
2022-09-09T03:14:47.853Z,99845.84
2022-09-09T03:17:49.841Z,99848.06
2022-09-09T03:20:52.162Z,99856.94
2022-09-09T03:23:55.643Z,99856.94
2022-09-09T03:26:57.502Z,99858.75
2022-09-09T03:29:59.679Z,99861.56
2022-09-09T03:33:01.591Z,99868.59
2022-09-09T03:36:09.537Z,99872.66
2022-09-09T03:39:11.764Z,99872.41
2022-09-09T03:42:20.743Z,99890.66
2022-09-09T03:45:26.479Z,99895.47
2022-09-09T03:48:29.454Z,99895.88
2022-09-09T03:51:32.136Z,99897.44
2022-09-09T03:54:35.192Z,99894.25
2022-09-09T03:57:38.298Z,99908.59
2022-09-09T04:00:46.089Z,99906.06
2022-09-09T04:03:48.099Z,99896.22
2022-09-09T04:06:50.008Z,99902.81
2022-09-09T04:09:52.350Z,99905.19
2022-09-09T04:12:54.450Z,99907.88
2022-09-09T04:15:59.758Z,99906.16
2022-09-09T04:19:02.449Z,99899.66
2022-09-09T04:22:04.510Z,99892.44
2022-09-09T04:25:08.521Z,99896.78
2022-09-09T04:28:11.443Z,99890.16
2022-09-09T04:31:24.673Z,99887.56
2022-09-09T04:34:30.831Z,99885.16
2022-09-09T04:37:32.925Z,99887.19
2022-09-09T04:40:36.472Z,99892.75
2022-09-09T04:43:39.527Z,99899.72
2022-09-09T04:46:43.144Z,99903.84
2022-09-09T04:49:45.943Z,99879.53
2022-09-09T04:52:48.090Z,99891.22
2022-09-09T04:55:50.465Z,99888.66
2022-09-09T04:58:52.449Z,99893.69
2022-09-09T05:01:57.852Z,99899.19
2022-09-09T05:05:01.231Z,99903.88
2022-09-09T05:08:05.759Z,99897.94
2022-09-09T05:11:21.569Z,99907.13
2022-09-09T05:14:23.795Z,99904.75
2022-09-09T05:17:26.132Z,99920.28
2022-09-09T05:20:29.694Z,99923.19
2022-09-09T05:23:32.102Z,99923.41
2022-09-09T05:26:35.337Z,99917.22
2022-09-09T05:29:38.889Z,99923.59
2022-09-09T05:32:44.449Z,99922.44
2022-09-09T05:35:48.008Z,99923.97
2022-09-09T05:38:51.051Z,99918.19
2022-09-09T05:41:53.264Z,99909.75
2022-09-09T05:44:55.792Z,99911.88
2022-09-09T05:47:58.426Z,99913.44
2022-09-09T05:51:01.299Z,99924.94
2022-09-09T05:54:03.116Z,99928.00
2022-09-09T05:57:10.847Z,99924.34
2022-09-09T06:00:16.108Z,99929.31
2022-09-09T06:03:24.602Z,99933.19
2022-09-09T06:06:31.265Z,99935.78
2022-09-09T06:09:34.657Z,99938.53
2022-09-09T06:12:37.198Z,99935.91
2022-09-09T06:15:39.201Z,99932.25
2022-09-09T06:18:42.513Z,99941.53
2022-09-09T06:21:45.464Z,99954.56
2022-09-09T06:24:48.049Z,99958.69
2022-09-09T06:27:50.832Z,99953.88
2022-09-09T06:30:58.310Z,99960.75
2022-09-09T06:34:02.099Z,99959.41
2022-09-09T06:37:07.675Z,99955.78
2022-09-09T06:40:17.767Z,99962.91
2022-09-09T06:43:20.698Z,99959.69
2022-09-09T06:46:31.432Z,99965.09
2022-09-09T06:49:33.536Z,99967.50
2022-09-09T06:52:38.328Z,99973.44
2022-09-09T06:55:43.356Z,99985.59
2022-09-09T06:58:46.133Z,99981.53
2022-09-09T07:01:56.301Z,99979.63
2022-09-09T07:04:59.850Z,99979.75
2022-09-09T07:08:03.267Z,99985.91
2022-09-09T07:11:11.610Z,99990.22
2022-09-09T07:14:17.233Z,100005.59
2022-09-09T07:17:22.611Z,100005.22
2022-09-09T07:20:24.653Z,100012.09
2022-09-09T07:23:27.894Z,100020.25
2022-09-09T07:26:32.081Z,100022.38
2022-09-09T07:29:35.947Z,100020.72
2022-09-09T07:32:38.758Z,100017.81
2022-09-09T07:35:41.791Z,100013.44
2022-09-09T07:38:46.827Z,100025.78
2022-09-09T07:41:50.265Z,100032.91
2022-09-09T07:44:56.016Z,100032.91
2022-09-09T07:47:58.484Z,100035.22
2022-09-09T07:51:07.079Z,100022.25
2022-09-09T07:54:12.678Z,100020.34
2022-09-09T07:57:19.490Z,100015.06
2022-09-09T08:00:23.275Z,100017.78
2022-09-09T08:03:29.632Z,100012.09
2022-09-09T08:06:34.653Z,100004.50
2022-09-09T08:09:36.743Z,99997.06
2022-09-09T08:13:07.833Z,99987.44
2022-09-09T08:16:16.399Z,99991.31
2022-09-09T08:19:18.710Z,99989.34
2022-09-09T08:22:23.164Z,99998.03
2022-09-09T08:25:26.206Z,99990.91
2022-09-09T08:28:28.394Z,99990.47
2022-09-09T08:31:34.246Z,99978.50
2022-09-09T08:34:41.137Z,99978.03
2022-09-09T08:37:51.402Z,99981.03
2022-09-09T08:41:02.165Z,99983.94
2022-09-09T08:44:44.421Z,99990.72
2022-09-09T08:47:48.628Z,99995.53
2022-09-09T08:50:53.150Z,99981.97
2022-09-09T08:54:04.416Z,99979.31
2022-09-09T08:57:16.143Z,99982.72
2022-09-09T09:00:18.295Z,99970.00
2022-09-09T09:03:25.733Z,99969.94
2022-09-09T09:06:31.766Z,99958.75
2022-09-09T09:10:05.066Z,99966.31
2022-09-09T09:13:16.918Z,99959.81
2022-09-09T09:17:00.348Z,99969.00
2022-09-09T09:20:05.728Z,99974.13
2022-09-09T09:23:13.872Z,99968.25
2022-09-09T09:26:16.617Z,99970.84
2022-09-09T09:29:21.069Z,99963.53
2022-09-09T09:32:24.025Z,99970.75
2022-09-09T09:35:26.506Z,99973.28
2022-09-09T09:41:53.669Z,99983.56
2022-09-09T09:44:55.885Z,99970.06
2022-09-09T09:48:07.320Z,99966.44
2022-09-09T09:51:17.137Z,99970.09
2022-09-09T09:54:30.878Z,99975.56
2022-09-09T09:57:37.601Z,99978.16
2022-09-09T10:00:52.224Z,99974.56
2022-09-09T10:04:01.060Z,99967.63
2022-09-09T10:07:18.232Z,99973.56
2022-09-09T10:13:58.925Z,99999.91
2022-09-09T10:17:34.179Z,99999.72
2022-09-09T10:20:52.533Z,99998.28
2022-09-09T10:24:12.837Z,100003.66
2022-09-09T10:28:03.963Z,99992.56
2022-09-09T10:31:10.718Z,99990.88
2022-09-09T10:34:31.628Z,99999.41
2022-09-09T10:37:53.010Z,99998.75
2022-09-09T10:40:56.530Z,99993.50
2022-09-09T10:44:18.754Z,99989.47
2022-09-09T10:47:54.159Z,99991.13
2022-09-09T10:51:17.867Z,99986.22
2022-09-09T10:54:44.786Z,99989.56
2022-09-09T10:57:53.371Z,99983.63
2022-09-09T11:01:03.470Z,99981.69
2022-09-09T11:04:33.501Z,99983.19
2022-09-09T11:07:59.456Z,99984.84
2022-09-09T11:11:05.933Z,99975.06
2022-09-09T11:14:37.346Z,99971.81
2022-09-09T11:17:48.010Z,99972.22
2022-09-09T11:20:59.837Z,99964.56
2022-09-09T11:24:10.812Z,99968.66
2022-09-09T11:27:31.525Z,99978.28
2022-09-09T11:31:04.353Z,99982.28
2022-09-09T11:34:09.531Z,99981.56
2022-09-09T11:37:43.502Z,99979.56
2022-09-09T11:40:47.445Z,99989.47
2022-09-09T11:43:49.629Z,99982.13
2022-09-09T11:46:53.274Z,99983.41
2022-09-09T11:49:55.249Z,99980.72
2022-09-09T11:53:06.226Z,99976.56
2022-09-09T11:56:14.771Z,99975.06
2022-09-09T11:59:27.501Z,99972.94
2022-09-09T12:02:33.655Z,99969.56
2022-09-09T12:05:54.533Z,99978.34
2022-09-09T12:09:06.596Z,99976.88
2022-09-09T12:12:23.602Z,99974.53
2022-09-09T12:15:30.257Z,99972.44
2022-09-09T12:18:41.702Z,99974.09
2022-09-09T12:21:52.910Z,99972.78
2022-09-09T12:25:07.425Z,99953.91
2022-09-09T12:28:18.327Z,99963.72
2022-09-09T12:31:35.451Z,99970.25
2022-09-09T12:34:43.173Z,99972.34
2022-09-09T12:37:58.088Z,99968.16
2022-09-09T12:41:00.307Z,99966.31
2022-09-09T12:44:07.279Z,99968.44
2022-09-09T12:47:14.081Z,99966.19
2022-09-09T12:50:24.130Z,99968.53
2022-09-09T12:53:29.345Z,99974.00
2022-09-09T12:56:33.596Z,99975.72
2022-09-09T12:59:40.799Z,99983.47
2022-09-09T13:03:00.286Z,99970.50
2022-09-09T13:06:13.960Z,99964.69
2022-09-09T13:12:24.271Z,99965.53
2022-09-09T13:15:29.425Z,99970.78
2022-09-09T13:18:34.862Z,99972.63
2022-09-09T13:21:39.277Z,99972.41
2022-09-09T13:24:41.153Z,99973.47
2022-09-09T13:27:53.996Z,99967.19
2022-09-09T13:31:05.973Z,99979.13
2022-09-09T13:34:17.665Z,99963.63
2022-09-09T13:37:38.912Z,99973.88
2022-09-09T13:40:53.191Z,99978.06
2022-09-09T13:43:57.472Z,99979.09
2022-09-09T13:47:10.487Z,99984.09
2022-09-09T13:50:27.446Z,99987.66
2022-09-09T13:53:29.777Z,99976.78
2022-09-09T13:56:32.970Z,99980.34
2022-09-09T14:00:01.119Z,99981.81
2022-09-09T14:02:57.425Z,99985.34
2022-09-09T14:05:59.373Z,99986.22
2022-09-09T14:09:01.342Z,99995.22
2022-09-09T14:12:03.716Z,99993.13
2022-09-09T14:15:07.488Z,99999.66
2022-09-09T14:18:13.338Z,99998.16
2022-09-09T14:21:16.658Z,99996.50
2022-09-09T14:24:18.649Z,99996.50
2022-09-09T14:27:21.229Z,100001.53
2022-09-09T14:30:23.093Z,99998.38
2022-09-09T14:33:25.847Z,99995.03
2022-09-09T14:36:27.862Z,99995.03
2022-09-09T14:39:30.702Z,99996.69
2022-09-09T14:42:32.580Z,99979.34
2022-09-09T14:45:37.446Z,99996.06
2022-09-09T14:48:41.796Z,99995.63
2022-09-09T14:51:43.677Z,99999.19
2022-09-09T14:54:45.612Z,100001.72
2022-09-09T14:57:47.703Z,99997.53
2022-09-09T15:00:49.585Z,100005.25
2022-09-09T15:03:59.001Z,100010.44
2022-09-09T15:07:00.953Z,100025.22
2022-09-09T15:10:04.176Z,100016.38
2022-09-09T15:13:06.036Z,100027.75
2022-09-09T15:16:15.968Z,100039.78
2022-09-09T15:19:17.988Z,100034.25
2022-09-09T15:22:20.209Z,100030.16
2022-09-09T15:25:23.271Z,100034.66
2022-09-09T15:28:25.125Z,100038.69
2022-09-09T15:31:31.320Z,100042.50
2022-09-09T15:34:33.276Z,100044.31
2022-09-09T15:37:35.564Z,100047.72
2022-09-09T15:40:37.644Z,100049.47
2022-09-09T15:43:40.480Z,100052.88
2022-09-09T15:46:42.785Z,100046.28
2022-09-09T15:49:44.757Z,100051.53
2022-09-09T15:52:46.547Z,100065.56
2022-09-09T15:55:49.795Z,100057.22
2022-09-09T15:58:53.401Z,100061.44
2022-09-09T16:01:56.173Z,100067.69
2022-09-09T16:05:02.244Z,100066.94
2022-09-09T16:08:07.064Z,100073.47
2022-09-09T16:11:15.915Z,100072.06
2022-09-09T16:14:17.821Z,100072.69
2022-09-09T16:17:21.595Z,100073.97
2022-09-09T16:20:23.447Z,100081.84
2022-09-09T16:23:25.674Z,100090.03
2022-09-09T16:26:28.987Z,100080.47
2022-09-09T16:29:30.974Z,100087.31
2022-09-09T16:32:36.226Z,100082.69
2022-09-09T16:35:39.905Z,100090.50
2022-09-09T16:38:43.752Z,100086.34
2022-09-09T16:41:48.346Z,100088.41
2022-09-09T16:44:51.189Z,100099.44
2022-09-09T16:47:53.429Z,100102.34
2022-09-09T16:51:03.054Z,100100.34
2022-09-09T16:54:09.567Z,100103.91
2022-09-09T16:57:11.591Z,100119.97
2022-09-09T17:00:15.401Z,100122.69
2022-09-09T17:03:18.100Z,100122.66
2022-09-09T17:06:20.678Z,100119.84
2022-09-09T17:09:25.028Z,100125.91
2022-09-09T17:12:26.877Z,100123.88
2022-09-09T17:15:28.813Z,100131.66
2022-09-09T17:18:31.244Z,100124.41
2022-09-09T17:21:34.779Z,100132.00
2022-09-09T17:24:39.586Z,100136.72
2022-09-09T17:27:41.585Z,100139.94
2022-09-09T17:30:43.584Z,100140.25
2022-09-09T17:33:49.059Z,100137.22
2022-09-09T17:36:51.376Z,100149.69
2022-09-09T17:39:53.413Z,100143.63
2022-09-09T17:43:00.029Z,100146.66
2022-09-09T17:46:23.287Z,100149.34
2022-09-09T17:49:25.254Z,100158.75
2022-09-09T17:52:27.893Z,100148.50
2022-09-09T17:55:29.736Z,100155.06
2022-09-09T17:58:31.736Z,100161.63
2022-09-09T18:01:39.670Z,100163.97
2022-09-09T18:04:45.392Z,100170.84
2022-09-09T18:07:47.489Z,100159.56
2022-09-09T18:10:55.829Z,100164.44
2022-09-09T18:14:01.981Z,100166.44
2022-09-09T18:17:06.989Z,100165.09
2022-09-09T18:20:11.020Z,100159.88
2022-09-09T18:23:19.419Z,100156.34
2022-09-09T18:26:26.557Z,100159.66
2022-09-09T18:29:32.139Z,100163.50
2022-09-09T18:32:37.530Z,100169.22
2022-09-09T18:35:40.068Z,100160.63
2022-09-09T18:38:43.810Z,100160.44
2022-09-09T18:41:52.745Z,100157.22
2022-09-09T18:44:56.009Z,100155.69
2022-09-09T18:47:57.728Z,100165.75
2022-09-09T18:51:09.254Z,100156.84
2022-09-09T18:54:29.232Z,100161.69
2022-09-09T18:57:36.279Z,100170.56
2022-09-09T19:00:39.188Z,100166.19
2022-09-09T19:03:41.989Z,100172.91
2022-09-09T19:06:48.829Z,100169.16
2022-09-09T19:09:50.698Z,100173.69
2022-09-09T19:12:53.105Z,100193.53
2022-09-09T19:15:55.947Z,100192.00
2022-09-09T19:19:02.987Z,100178.88
2022-09-09T19:22:06.940Z,100179.97
2022-09-09T19:25:09.215Z,100181.13
2022-09-09T19:28:12.265Z,100183.31
2022-09-09T19:31:17.790Z,100184.63
2022-09-09T19:34:20.471Z,100179.03
2022-09-09T19:37:22.769Z,100182.19
2022-09-09T19:40:25.017Z,100172.91
2022-09-09T19:43:26.871Z,100181.13
2022-09-09T19:46:30.497Z,100191.19
2022-09-09T19:49:32.979Z,100202.72
2022-09-09T19:52:34.810Z,100205.88
2022-09-09T19:55:39.478Z,100207.19
2022-09-09T20:02:20.192Z,100206.25
2022-09-09T20:05:23.836Z,100199.66
2022-09-09T20:08:27.436Z,100199.09
2022-09-09T20:11:29.985Z,100194.72
2022-09-09T20:14:34.034Z,100191.66
2022-09-09T20:17:39.210Z,100189.97
2022-09-09T20:20:43.024Z,100206.06
2022-09-09T20:23:44.905Z,100210.91
2022-09-09T20:26:48.996Z,100206.69
2022-09-09T20:29:51.264Z,100207.00
2022-09-09T20:32:53.143Z,100193.56
2022-09-09T20:35:55.011Z,100202.75
2022-09-09T20:38:59.797Z,100224.72
2022-09-09T20:42:03.098Z,100217.34
2022-09-09T20:45:07.296Z,100198.25
2022-09-09T20:48:09.143Z,100185.28
2022-09-09T20:51:11.559Z,100203.38
2022-09-09T20:54:24.992Z,100208.75
2022-09-09T20:57:26.946Z,100214.28
2022-09-09T21:00:30.148Z,100205.53
2022-09-09T21:03:37.032Z,100211.03
2022-09-09T21:06:38.977Z,100220.09
2022-09-09T21:09:41.227Z,100224.91
2022-09-09T21:12:43.090Z,100233.81
2022-09-09T21:15:46.114Z,100235.66
2022-09-09T21:18:51.824Z,100231.97
2022-09-09T21:21:53.674Z,100227.59
2022-09-09T21:24:55.710Z,100238.50
2022-09-09T21:27:57.667Z,100236.25
2022-09-09T21:30:59.720Z,100248.44
2022-09-09T21:34:01.738Z,100240.53
2022-09-09T21:37:03.658Z,100243.81
2022-09-09T21:40:06.962Z,100251.88
2022-09-09T21:43:10.853Z,100252.47
2022-09-09T21:46:20.012Z,100252.75
2022-09-09T21:49:21.932Z,100257.13
2022-09-09T21:52:24.444Z,100266.47
2022-09-09T21:55:26.276Z,100265.47
2022-09-09T21:58:28.473Z,100262.25
2022-09-09T22:01:33.540Z,100259.72
2022-09-09T22:04:37.380Z,100256.63
2022-09-09T22:07:40.929Z,100269.50
2022-09-09T22:10:48.050Z,100269.78
2022-09-09T22:13:50.840Z,100261.47
2022-09-09T22:16:53.008Z,100264.84
2022-09-09T22:19:55.060Z,100260.19
2022-09-09T22:22:56.884Z,100257.66
2022-09-09T22:25:58.775Z,100253.28
2022-09-09T22:29:01.083Z,100243.13
2022-09-09T22:32:03.484Z,100250.03
2022-09-09T22:35:05.956Z,100270.81
2022-09-09T22:38:08.608Z,100270.09
2022-09-09T22:41:10.623Z,100270.81
2022-09-09T22:44:12.571Z,100278.44
2022-09-09T22:47:14.542Z,100287.34
2022-09-09T22:50:16.880Z,100286.22
2022-09-09T22:53:19.000Z,100269.56
2022-09-09T22:56:20.923Z,100269.72
2022-09-09T22:59:23.667Z,100271.72
2022-09-09T23:02:26.657Z,100271.16
2022-09-09T23:05:28.583Z,100258.88
2022-09-09T23:08:38.020Z,100263.41
2022-09-09T23:11:40.134Z,100275.69
2022-09-09T23:14:42.035Z,100276.66
2022-09-09T23:17:43.892Z,100268.78
2022-09-09T23:20:46.197Z,100264.53
2022-09-09T23:23:51.958Z,100268.53
2022-09-09T23:26:53.782Z,100272.22
2022-09-09T23:29:57.032Z,100280.38
2022-09-09T23:32:59.144Z,100296.63
2022-09-09T23:36:02.320Z,100279.81
2022-09-09T23:39:06.072Z,100281.66
2022-09-09T23:42:09.557Z,100280.25
2022-09-09T23:45:11.440Z,100268.00
2022-09-09T23:48:13.339Z,100275.88
2022-09-09T23:51:17.482Z,100264.59
2022-09-09T23:54:19.401Z,100271.78
2022-09-09T23:57:21.908Z,100287.72
